Time;durP1;ratioP1;P1;durP2;ratioP2;P2;SDS_P1;SDS_P2;PMS_P1;PMS_P2;Temp;Humidity;BMP_temperature;BMP_pressure;BME280_temperature;BME280_humidity;BME280_pressure;Samples;Min_cycle;Max_cycle;Signal;HPM_P1;HPM_P2
2022/01/14 00:00:48;;;;;;;25.40;20.87;;;;;;;-0.43;100.00;151261.94;5010540;28;20441;-83
2022/01/14 00:03:23;;;;;;;26.43;20.20;;;;;;;-0.43;100.00;151261.94;4992660;28;20453;-82
2022/01/14 00:05:59;;;;;;;30.07;20.27;;;;;;;-0.44;100.00;151259.34;4993190;28;20443;-82
2022/01/14 00:08:34;;;;;;;28.63;18.60;;;;;;;-0.49;100.00;151246.53;4993303;28;20850;-82
2022/01/14 00:11:16;;;;;;;26.60;18.63;;;;;;;-0.50;100.00;151242.69;4988605;28;20466;-82
2022/01/14 00:13:58;;;;;;;22.43;17.43;;;;;;;-0.54;100.00;151233.69;4975673;28;21005;-82
2022/01/14 00:16:34;;;;;;;28.80;19.07;;;;;;;-0.53;100.00;151235.00;4993503;28;20873;-82
2022/01/14 00:19:10;;;;;;;24.90;19.47;;;;;;;-0.54;100.00;151232.41;4993209;28;20568;-82
2022/01/14 00:21:46;;;;;;;24.23;19.40;;;;;;;-0.54;100.00;151233.69;5009342;28;20448;-82
2022/01/14 00:24:30;;;;;;;24.23;19.50;;;;;;;-0.54;100.00;151233.69;4992140;28;20530;-82
2022/01/14 00:32:59;;;;;;;27.73;22.20;;;;;;;-0.57;100.00;151224.69;4989660;28;20446;-82
2022/01/14 00:35:36;;;;;;;33.73;23.17;;;;;;;-0.58;100.00;151223.41;4991409;28;20469;-81
2022/01/14 00:38:13;;;;;;;30.50;23.20;;;;;;;-0.61;100.00;151215.75;4983322;28;20775;-82
2022/01/14 00:40:48;;;;;;;33.47;22.17;;;;;;;-0.63;100.00;151210.59;4992551;28;20487;-81
2022/01/14 00:43:25;;;;;;;34.20;23.73;;;;;;;-0.64;100.00;151209.28;4976946;28;20437;-82
2022/01/14 00:46:01;;;;;;;27.67;21.33;;;;;;;-0.66;100.00;151202.88;4978490;28;20540;-81
2022/01/14 00:48:38;;;;;;;34.67;20.43;;;;;;;-0.68;100.00;151197.78;4993582;28;20461;-82
2022/01/14 00:51:14;;;;;;;31.50;20.50;;;;;;;-0.69;100.00;151195.25;4992594;28;20452;-81
2022/01/14 00:53:50;;;;;;;29.50;21.87;;;;;;;-0.69;100.00;151196.47;4991812;28;20492;-81
2022/01/14 00:56:31;;;;;;;31.73;20.60;;;;;;;-0.70;100.00;151193.94;4992580;28;20441;-82
2022/01/14 00:59:16;;;;;;;32.87;21.33;;;;;;;-0.65;100.00;151205.47;4992111;28;20457;-81
2022/01/14 01:01:53;;;;;;;27.27;19.37;;;;;;;-0.63;100.00;151210.59;5005933;28;20496;-82
2022/01/14 01:04:34;;;;;;;27.40;19.23;;;;;;;-0.65;100.00;151206.75;4977109;28;20446;-81
2022/01/14 01:07:11;;;;;;;28.53;19.00;;;;;;;-0.64;100.00;151209.28;4999672;28;20452;-82
2022/01/14 01:09:50;;;;;;;31.67;20.60;;;;;;;-0.63;100.00;151210.59;4993868;28;21017;-81
2022/01/14 01:12:34;;;;;;;27.33;19.90;;;;;;;-0.60;100.00;151218.28;4992287;28;20455;-82
2022/01/14 01:15:15;;;;;;;28.13;19.40;;;;;;;-0.56;100.00;151228.59;4992442;28;20477;-81
2022/01/14 01:17:50;;;;;;;27.90;19.37;;;;;;;-0.57;100.00;151226.00;4991137;28;20465;-81
2022/01/14 01:20:25;;;;;;;28.47;19.60;;;;;;;-0.60;100.00;151218.28;4992418;28;20488;-81
2022/01/14 01:23:03;;;;;;;28.90;19.60;;;;;;;-0.58;100.00;151222.16;4992861;28;20436;-81
2022/01/14 01:25:54;;;;;;;28.97;19.70;;;;;;;-0.56;100.00;151228.59;4976699;28;20440;-82
2022/01/14 01:28:30;;;;;;;29.03;20.60;;;;;;;-0.58;100.00;151223.41;4986958;28;20990;-82
2022/01/14 01:31:35;;;;;;;28.53;20.47;;;;;;;-0.58;100.00;151223.41;4985011;28;20445;-82
2022/01/14 01:34:04;;;;;;;30.67;20.50;;;;;;;-0.57;100.00;151224.69;4977715;28;20633;-81
2022/01/14 01:36:40;;;;;;;32.70;21.70;;;;;;;-0.60;100.00;151218.28;4991454;28;20847;-81
2022/01/14 01:39:18;;;;;;;29.30;20.33;;;;;;;-0.62;100.00;151213.19;4991056;28;20563;-81
2022/01/14 01:41:55;;;;;;;32.13;20.57;;;;;;;-0.67;100.00;151200.34;4991655;28;21049;-81
2022/01/14 01:44:31;;;;;;;25.87;20.37;;;;;;;-0.66;100.00;151202.88;4991700;28;20450;-81
2022/01/14 01:47:08;;;;;;;28.07;17.70;;;;;;;-0.65;100.00;151206.75;4992323;28;20453;-81
2022/01/14 01:49:43;;;;;;;35.17;20.90;;;;;;;-0.62;100.00;151213.19;4992383;28;20458;-81
2022/01/14 01:52:19;;;;;;;32.90;20.53;;;;;;;-0.58;100.00;151222.16;4977386;28;20806;-81
2022/01/14 01:54:54;;;;;;;29.87;20.23;;;;;;;-0.62;100.00;151213.19;4985386;28;20962;-81
2022/01/14 01:57:30;;;;;;;28.77;21.40;;;;;;;-0.57;100.00;151226.00;4990867;28;20449;-82
2022/01/14 02:00:07;;;;;;;30.57;19.63;;;;;;;-0.55;100.00;151231.13;4991852;28;20432;-81
2022/01/14 02:02:54;;;;;;;31.03;21.97;;;;;;;-0.59;100.00;151220.88;4990700;28;20460;-81
2022/01/14 02:05:30;;;;;;;29.27;19.90;;;;;;;-0.54;100.00;151233.69;4985933;28;20849;-81
2022/01/14 02:08:06;;;;;;;29.70;21.30;;;;;;;-0.53;100.00;151236.22;4981610;28;20623;-81
2022/01/14 02:10:41;;;;;;;26.97;19.37;;;;;;;-0.55;100.00;151231.13;4976983;28;20432;-81
2022/01/14 02:13:17;;;;;;;27.27;18.67;;;;;;;-0.57;100.00;151224.69;4990336;28;20453;-81
2022/01/14 02:16:15;;;;;;;25.77;19.00;;;;;;;-0.60;100.00;151218.28;4990483;28;20464;-81
2022/01/14 02:19:13;;;;;;;25.47;18.30;;;;;;;-0.63;100.00;151210.59;4990980;28;20450;-82
2022/01/14 02:22:10;;;;;;;25.17;18.50;;;;;;;-0.64;100.00;151208.06;4991643;28;20446;-82
2022/01/14 02:24:58;;;;;;;28.47;19.57;;;;;;;-0.65;100.00;151205.47;4987265;28;20532;-82
2022/01/14 02:27:37;;;;;;;28.33;19.60;;;;;;;-0.66;100.00;151202.88;4975233;28;20447;-82
2022/01/14 02:30:13;;;;;;;24.03;19.27;;;;;;;-0.66;100.00;151202.88;4991247;28;20458;-81
2022/01/14 02:32:48;;;;;;;29.47;20.70;;;;;;;-0.64;100.00;151208.06;4991017;28;20539;-82
2022/01/14 02:35:24;;;;;;;27.50;19.07;;;;;;;-0.67;100.00;151200.34;4992773;28;20468;-83
2022/01/14 02:38:01;;;;;;;25.00;19.07;;;;;;;-0.72;100.00;151188.81;5006862;28;22237;-82
2022/01/14 02:40:37;;;;;;;27.57;20.63;;;;;;;-0.74;100.00;151182.38;4975026;28;20944;-82
2022/01/14 02:43:15;;;;;;;26.67;18.70;;;;;;;-0.74;100.00;151182.38;4972399;28;20442;-82
2022/01/14 02:45:53;;;;;;;25.03;19.50;;;;;;;-0.75;100.00;151181.13;4981626;28;20468;-82
2022/01/14 02:48:29;;;;;;;28.20;19.93;;;;;;;-0.78;100.00;151173.44;4991454;28;20440;-82
2022/01/14 02:51:11;;;;;;;26.83;18.00;;;;;;;-0.76;100.00;151178.53;4974142;28;20877;-82
2022/01/14 02:53:58;;;;;;;21.57;17.63;;;;;;;-0.75;100.00;151181.13;5006095;28;20456;-82
2022/01/14 02:56:34;;;;;;;32.40;20.70;;;;;;;-0.81;100.00;151165.72;4990407;28;20464;-82
2022/01/14 02:59:10;;;;;;;27.40;19.73;;;;;;;-0.79;100.00;151169.56;4972729;28;20477;-82
2022/01/14 03:01:47;;;;;;;29.57;20.33;;;;;;;-0.76;100.00;151177.25;4973063;28;20442;-82
2022/01/14 03:04:23;;;;;;;25.10;18.53;;;;;;;-0.81;100.00;151165.72;4979716;28;20449;-82
2022/01/14 03:06:59;;;;;;;28.03;19.20;;;;;;;-0.86;100.00;151152.91;4989145;28;20968;-83
2022/01/14 03:09:36;;;;;;;24.17;18.60;;;;;;;-0.87;100.00;151149.03;4990921;28;20450;-82
2022/01/14 03:12:12;;;;;;;30.50;21.50;;;;;;;-0.88;100.00;151146.50;4975844;28;20450;-82
2022/01/14 03:14:48;;;;;;;28.60;19.40;;;;;;;-0.94;100.00;151131.09;5006893;28;20483;-82
2022/01/14 03:17:23;;;;;;;26.67;19.90;;;;;;;-0.96;100.00;151127.28;4972937;28;20481;-82
2022/01/14 03:20:00;;;;;;;31.00;21.57;;;;;;;-0.98;100.00;151122.09;4970070;28;20839;-82
2022/01/14 03:22:37;;;;;;;31.17;21.07;;;;;;;-0.99;100.00;151118.28;4992281;28;20453;-82
2022/01/14 03:28:07;;;;;;;27.97;19.10;;;;;;;-1.00;100.00;151115.69;4974387;28;20912;-82
2022/01/14 03:30:42;;;;;;;27.77;19.83;;;;;;;-1.02;100.00;151110.59;4976176;28;20766;-83
2022/01/14 03:33:19;;;;;;;28.83;20.00;;;;;;;-1.05;100.00;151104.19;4983758;28;20448;-82
2022/01/14 03:35:54;;;;;;;29.00;18.87;;;;;;;-1.03;100.00;151109.28;4998941;28;20567;-82
2022/01/14 03:38:30;;;;;;;26.50;19.70;;;;;;;-1.01;100.00;151113.16;4999036;28;20437;-82
2022/01/14 03:41:07;;;;;;;27.50;19.00;;;;;;;-1.00;100.00;151117.00;4997754;28;20449;-83
2022/01/14 03:43:43;;;;;;;27.17;19.63;;;;;;;-1.02;100.00;151110.59;4993942;28;20542;-82
2022/01/14 03:46:18;;;;;;;28.30;19.70;;;;;;;-1.04;100.00;151105.47;4995260;28;20436;-82
2022/01/14 03:48:54;;;;;;;28.30;19.00;;;;;;;-1.07;100.00;151099.06;4990764;28;20465;-83
2022/01/14 03:51:30;;;;;;;27.50;18.80;;;;;;;-1.07;100.00;151097.78;4977284;28;20830;-83
2022/01/14 03:54:06;;;;;;;27.17;19.47;;;;;;;-1.09;100.00;151092.66;4993852;28;20460;-82
2022/01/14 03:56:43;;;;;;;28.63;19.43;;;;;;;-1.13;100.00;151082.38;4993464;28;20462;-82
2022/01/14 03:59:18;;;;;;;24.40;19.73;;;;;;;-1.14;100.00;151079.84;4979860;28;20938;-82
2022/01/14 04:01:54;;;;;;;26.53;18.67;;;;;;;-1.18;100.00;151069.56;4991344;28;20450;-83
2022/01/14 04:04:30;;;;;;;28.47;20.00;;;;;;;-1.18;100.00;151069.56;4982452;28;20461;-83
2022/01/14 04:07:06;;;;;;;25.47;20.17;;;;;;;-1.23;100.00;151059.34;4991791;28;20536;-82
2022/01/14 04:09:41;;;;;;;24.53;18.63;;;;;;;-1.22;100.00;151061.88;4979218;28;20764;-82
2022/01/14 04:12:31;;;;;;;26.10;18.00;;;;;;;-1.23;100.00;151058.03;4993839;28;20524;-82
2022/01/14 04:18:01;;;;;;;24.97;18.37;;;;;;;-1.27;100.00;151049.06;4994485;28;20773;-82
2022/01/14 04:20:37;;;;;;;26.30;18.47;;;;;;;-1.27;100.00;151049.06;4978033;28;20540;-82
2022/01/14 04:23:13;;;;;;;25.20;18.30;;;;;;;-1.29;100.00;151043.94;4992799;28;20480;-82
2022/01/14 04:25:48;;;;;;;25.17;18.77;;;;;;;-1.31;100.00;151038.81;4979000;28;20425;-83
2022/01/14 04:28:29;;;;;;;26.40;18.40;;;;;;;-1.30;100.00;151041.34;4993776;28;20508;-83
2022/01/14 04:31:06;;;;;;;25.17;18.07;;;;;;;-1.26;100.00;151051.63;4979911;28;20596;-83
2022/01/14 04:33:42;;;;;;;30.93;19.67;;;;;;;-1.26;100.00;151051.63;4975066;28;20442;-84
2022/01/14 04:36:17;;;;;;;24.03;19.33;;;;;;;-1.23;100.00;151058.03;4992546;28;20458;-83
2022/01/14 04:38:53;;;;;;;29.90;20.10;;;;;;;-1.19;100.00;151067.03;4993010;28;20534;-83
2022/01/14 04:41:31;;;;;;;25.57;18.30;;;;;;;-1.17;100.00;151072.13;4992510;28;20441;-83
2022/01/14 04:44:08;;;;;;;25.73;19.27;;;;;;;-1.13;100.00;151082.38;4991322;28;20462;-83
2022/01/14 04:47:12;;;;;;;24.40;18.30;;;;;;;-1.15;100.00;151077.25;4987034;28;20450;-83
2022/01/14 04:49:48;;;;;;;25.60;17.80;;;;;;;-1.14;100.00;151079.84;4989661;28;20789;-82
2022/01/14 04:52:24;;;;;;;28.10;19.27;;;;;;;-1.17;100.00;151072.13;4967948;28;20834;-82
2022/01/14 04:55:00;;;;;;;27.77;18.90;;;;;;;-1.19;100.00;151067.03;5006144;28;20821;-83
2022/01/14 04:57:35;;;;;;;26.67;19.37;;;;;;;-1.24;100.00;151056.75;4989796;28;20593;-83
2022/01/14 05:00:15;;;;;;;28.20;19.57;;;;;;;-1.24;100.00;151056.75;5007220;28;20785;-82
2022/01/14 05:02:53;;;;;;;25.87;19.07;;;;;;;-1.28;100.00;151045.22;4993064;28;20516;-83
2022/01/14 05:05:32;;;;;;;25.90;19.27;;;;;;;-1.27;100.00;151049.06;4992690;28;20449;-83
2022/01/14 05:08:15;;;;;;;26.07;18.40;;;;;;;-1.30;100.00;151041.34;4993575;28;20452;-82
2022/01/14 05:11:03;;;;;;;27.30;19.07;;;;;;;-1.28;100.00;151045.22;4976741;28;20524;-82
2022/01/14 05:13:38;;;;;;;26.10;20.50;;;;;;;-1.27;100.00;151049.06;4977325;28;20475;-82
2022/01/14 05:16:15;;;;;;;26.57;19.30;;;;;;;-1.28;100.00;151046.50;4991761;28;20470;-83
2022/01/14 05:18:50;;;;;;;27.90;20.97;;;;;;;-1.28;100.00;151046.50;4992302;28;20539;-83
2022/01/14 05:21:26;;;;;;;29.00;19.67;;;;;;;-1.27;100.00;151049.06;4991775;28;20445;-83
2022/01/14 05:24:01;;;;;;;26.00;19.37;;;;;;;-1.26;100.00;151050.34;4992224;28;20455;-83
2022/01/14 05:26:37;;;;;;;23.53;18.07;;;;;;;-1.27;100.00;151049.06;4991407;28;20442;-83
2022/01/14 05:29:13;;;;;;;28.40;17.33;;;;;;;-1.26;100.00;151051.63;4989879;28;20457;-82
2022/01/14 05:31:51;;;;;;;23.87;17.50;;;;;;;-1.24;100.00;151055.44;5007839;28;20801;-83
2022/01/14 05:34:27;;;;;;;21.50;18.00;;;;;;;-1.24;100.00;151056.75;4992442;28;20449;-83
2022/01/14 05:37:04;;;;;;;24.40;17.60;;;;;;;-1.23;100.00;151059.34;4992534;28;20461;-83
2022/01/14 05:39:41;;;;;;;22.70;16.83;;;;;;;-1.25;100.00;151052.91;4976757;28;20908;-83
2022/01/14 05:42:17;;;;;;;20.30;16.13;;;;;;;-1.25;100.00;151054.22;4991309;28;20438;-82
2022/01/14 05:44:53;;;;;;;25.10;18.97;;;;;;;-1.23;100.00;151059.34;4991700;28;20448;-82
2022/01/14 05:47:34;;;;;;;23.03;17.23;;;;;;;-1.27;100.00;151049.06;4975923;28;20448;-82
2022/01/14 05:50:11;;;;;;;23.00;17.60;;;;;;;-1.29;100.00;151043.94;4993202;28;20461;-83
2022/01/14 05:52:47;;;;;;;23.10;17.63;;;;;;;-1.28;100.00;151045.22;4992545;28;20530;-83
2022/01/14 05:55:23;;;;;;;24.20;17.00;;;;;;;-1.30;100.00;151040.13;4991631;28;20536;-83
2022/01/14 05:57:59;;;;;;;25.27;16.10;;;;;;;-1.34;100.00;151031.13;4991159;28;20485;-82
2022/01/14 06:00:34;;;;;;;21.30;15.87;;;;;;;-1.35;100.00;151028.53;4974943;28;20449;-83
2022/01/14 06:03:11;;;;;;;20.17;15.80;;;;;;;-1.36;100.00;151026.00;4992981;28;20413;-83
2022/01/14 06:05:47;;;;;;;20.17;14.77;;;;;;;-1.33;100.00;151032.41;4990703;28;20471;-83
2022/01/14 06:08:23;;;;;;;20.80;15.10;;;;;;;-1.32;100.00;151036.22;4990357;28;20549;-83
2022/01/14 06:10:58;;;;;;;20.20;14.80;;;;;;;-1.31;100.00;151038.81;4996043;28;20436;-82
2022/01/14 06:13:34;;;;;;;20.70;15.97;;;;;;;-1.32;100.00;151036.22;4985357;28;20450;-83
2022/01/14 06:16:10;;;;;;;20.13;15.50;;;;;;;-1.32;100.00;151036.22;4972001;28;20843;-83
2022/01/14 06:18:47;;;;;;;23.90;17.90;;;;;;;-1.34;100.00;151031.13;4971569;28;20450;-83
2022/01/14 06:21:23;;;;;;;26.43;18.03;;;;;;;-1.33;100.00;151033.69;4989889;28;20446;-82
2022/01/14 06:23:58;;;;;;;23.43;17.17;;;;;;;-1.32;100.00;151034.94;4990374;28;20449;-82
2022/01/14 06:26:34;;;;;;;24.40;17.30;;;;;;;-1.34;100.00;151031.13;5008520;28;20444;-83
2022/01/14 06:29:09;;;;;;;30.43;19.73;;;;;;;-1.34;100.00;151031.13;4980455;28;20456;-82
2022/01/14 06:31:45;;;;;;;32.90;18.60;;;;;;;-1.35;100.00;151027.28;4988882;28;20442;-82
2022/01/14 06:34:22;;;;;;;29.57;19.10;;;;;;;-1.40;100.00;151014.44;4975323;28;20804;-82
2022/01/14 06:36:59;;;;;;;25.33;18.37;;;;;;;-1.43;100.00;151006.78;4990799;28;20458;-85
2022/01/14 06:39:34;;;;;;;23.70;18.97;;;;;;;-1.47;100.00;150997.81;4993322;28;20469;-82
2022/01/14 06:42:10;;;;;;;29.87;19.47;;;;;;;-1.47;100.00;150997.81;4990188;28;20812;-83
2022/01/14 06:44:45;;;;;;;26.93;19.03;;;;;;;-1.49;100.00;150992.69;4991719;28;20446;-84
2022/01/14 06:47:22;;;;;;;29.43;20.27;;;;;;;-1.51;100.00;150987.53;4978872;28;20462;-84
2022/01/14 06:49:59;;;;;;;27.97;18.37;;;;;;;-1.48;100.00;150993.94;4992524;28;20450;-84
2022/01/14 06:52:34;;;;;;;23.67;18.87;;;;;;;-1.49;100.00;150992.69;4986228;28;20936;-84
2022/01/14 06:55:10;;;;;;;23.60;18.40;;;;;;;-1.46;100.00;150999.09;4987360;28;21016;-84
2022/01/14 06:57:46;;;;;;;23.03;16.70;;;;;;;-1.46;100.00;151000.38;4986413;28;20473;-83
2022/01/14 07:00:22;;;;;;;23.77;17.90;;;;;;;-1.47;100.00;150997.81;4976844;28;20450;-84
2022/01/14 07:02:58;;;;;;;22.50;16.30;;;;;;;-1.46;100.00;150999.09;5004024;28;20560;-83
2022/01/14 07:05:35;;;;;;;24.20;17.57;;;;;;;-1.51;100.00;150987.53;4967417;28;20455;-83
2022/01/14 07:08:11;;;;;;;22.60;17.50;;;;;;;-1.51;100.00;150987.53;4977463;28;20433;-83
2022/01/14 07:10:46;;;;;;;28.60;18.20;;;;;;;-1.51;100.00;150987.53;5003784;28;20459;-83
2022/01/14 07:13:22;;;;;;;24.10;17.83;;;;;;;-1.52;100.00;150985.00;4973138;28;20943;-83
2022/01/14 07:15:57;;;;;;;24.50;17.30;;;;;;;-1.49;100.00;150992.69;4992596;28;20504;-83
2022/01/14 07:18:33;;;;;;;22.97;17.50;;;;;;;-1.51;100.00;150987.53;4959414;28;20437;-83
2022/01/14 07:21:10;;;;;;;23.13;16.77;;;;;;;-1.50;100.00;150988.81;5002903;28;20507;-83
2022/01/14 07:23:45;;;;;;;23.03;18.37;;;;;;;-1.46;100.00;150999.09;4979143;28;20461;-83
2022/01/14 07:26:21;;;;;;;21.67;16.40;;;;;;;-1.45;100.00;151002.91;4975622;28;20933;-83
2022/01/14 07:28:57;;;;;;;22.80;17.37;;;;;;;-1.40;100.00;151014.44;4959204;28;20454;-83
2022/01/14 07:31:32;;;;;;;19.33;17.03;;;;;;;-1.31;100.00;151038.81;4990483;28;20537;-83
2022/01/14 07:34:08;;;;;;;24.07;17.20;;;;;;;-1.16;100.00;151074.66;4996134;28;20471;-83
2022/01/14 07:36:45;;;;;;;26.57;18.90;;;;;;;-1.04;100.00;151105.47;4979782;28;20559;-83
2022/01/14 07:39:22;;;;;;;24.40;17.70;;;;;;;-0.96;100.00;151125.97;4992746;28;20465;-83
2022/01/14 07:41:58;;;;;;;25.60;18.60;;;;;;;-0.88;100.00;151147.78;4988157;28;20434;-83
2022/01/14 07:44:34;;;;;;;29.30;18.80;;;;;;;-0.79;100.00;151169.56;5001571;28;20450;-83
2022/01/14 07:47:09;;;;;;;24.40;17.57;;;;;;;-0.76;100.00;151177.25;4994160;28;20445;-83
2022/01/14 07:49:46;;;;;;;24.47;18.07;;;;;;;-0.69;100.00;151196.47;4993123;28;20452;-84
2022/01/14 07:52:23;;;;;;;27.20;18.27;;;;;;;-0.59;100.00;151220.88;4993660;28;20425;-83
2022/01/14 07:54:59;;;;;;;27.83;19.17;;;;;;;-0.45;100.00;151256.75;4992894;28;20506;-83
2022/01/14 07:57:34;;;;;;;25.30;19.67;;;;;;;-0.39;100.00;151270.88;4965653;28;20455;-83
2022/01/14 08:00:11;;;;;;;27.53;19.17;;;;;;;-0.31;100.00;151291.41;4975843;28;20544;-84
2022/01/14 08:02:49;;;;;;;21.70;16.80;;;;;;;-0.25;100.00;151308.09;4993571;28;20787;-84
2022/01/14 08:05:25;;;;;;;24.80;15.47;;;;;;;-0.16;100.00;151331.16;4978009;28;20453;-83
2022/01/14 08:08:07;;;;;;;18.60;13.83;;;;;;;-0.08;100.00;151351.69;4993577;28;20542;-83
2022/01/14 08:10:43;;;;;;;16.27;12.30;;;;;;;-0.03;100.00;151363.28;5010293;28;20430;-83
2022/01/14 08:13:19;;;;;;;15.50;12.00;;;;;;;0.02;100.00;151374.81;4995556;28;20464;-83
2022/01/14 08:15:55;;;;;;;17.57;12.33;;;;;;;0.06;100.00;151385.06;4993587;28;20493;-83
2022/01/14 08:18:31;;;;;;;17.10;12.70;;;;;;;0.10;100.00;151395.34;4993476;28;20464;-83
2022/01/14 08:21:06;;;;;;;15.97;13.20;;;;;;;0.11;100.00;151397.94;4993133;28;20433;-84
2022/01/14 08:23:43;;;;;;;17.87;13.23;;;;;;;0.15;100.00;151408.19;4990905;28;20447;-83
2022/01/14 08:26:19;;;;;;;20.03;15.43;;;;;;;0.16;100.00;151410.75;4992132;28;20468;-83
2022/01/14 08:28:54;;;;;;;19.37;15.50;;;;;;;0.19;100.00;151418.41;4992730;28;20454;-83
2022/01/14 08:31:29;;;;;;;23.33;15.60;;;;;;;0.21;100.00;151424.88;4994683;28;20952;-83
2022/01/14 08:34:06;;;;;;;22.13;16.10;;;;;;;0.24;100.00;151432.53;4974691;28;20449;-83
2022/01/14 08:36:42;;;;;;;17.23;14.90;;;;;;;0.30;100.00;151447.97;4985527;28;20461;-82
2022/01/14 08:39:19;;;;;;;23.63;16.13;;;;;;;0.33;99.44;151454.38;4994637;28;20460;-83
2022/01/14 08:41:55;;;;;;;18.30;14.87;;;;;;;0.38;99.17;151467.19;4977320;28;20446;-83
2022/01/14 08:44:31;;;;;;;23.53;15.60;;;;;;;0.48;98.95;151492.88;4992497;28;20477;-83
2022/01/14 08:47:09;;;;;;;19.90;14.87;;;;;;;0.68;97.50;151542.97;4992106;28;20476;-82
2022/01/14 08:49:45;;;;;;;18.80;14.40;;;;;;;0.70;97.48;151549.38;4991809;28;20461;-81
2022/01/14 08:52:20;;;;;;;19.87;15.70;;;;;;;0.76;96.94;151564.81;4985131;28;20464;-81
2022/01/14 08:54:57;;;;;;;18.10;15.27;;;;;;;0.77;97.71;151566.09;4977682;28;20457;-81
2022/01/14 08:57:33;;;;;;;21.57;16.73;;;;;;;0.79;96.82;151572.50;4991079;28;20611;-82
2022/01/14 09:00:10;;;;;;;22.57;17.63;;;;;;;0.78;97.38;151569.91;4993321;28;20839;-82
2022/01/14 09:02:46;;;;;;;21.93;16.60;;;;;;;0.79;97.09;151572.50;4975912;28;20932;-82
2022/01/14 09:05:22;;;;;;;21.13;17.40;;;;;;;0.81;96.90;151576.34;4969542;28;20521;-82
2022/01/14 09:07:58;;;;;;;22.90;17.23;;;;;;;0.77;96.62;151566.09;4992880;28;20449;-82
2022/01/14 09:10:35;;;;;;;26.30;17.70;;;;;;;0.78;97.39;151569.91;4994491;28;20935;-82
2022/01/14 09:13:11;;;;;;;26.90;19.17;;;;;;;0.81;97.64;151576.34;5008203;28;20433;-81
2022/01/14 09:15:47;;;;;;;20.87;17.60;;;;;;;0.80;97.26;151575.03;4992843;28;20431;-82
2022/01/14 09:18:23;;;;;;;24.37;17.90;;;;;;;0.87;97.68;151593.06;4976877;28;20866;-82
2022/01/14 09:20:59;;;;;;;22.17;18.03;;;;;;;0.88;97.69;151595.59;4975066;28;20457;-82
2022/01/14 09:23:37;;;;;;;21.73;16.63;;;;;;;0.90;97.46;151600.72;5005274;28;20449;-81
2022/01/14 09:26:13;;;;;;;24.87;17.40;;;;;;;0.93;97.19;151607.13;4973067;28;20427;-82
2022/01/14 09:28:49;;;;;;;20.33;15.80;;;;;;;0.95;98.35;151613.59;4957936;28;20449;-82
2022/01/14 09:31:24;;;;;;;25.40;18.70;;;;;;;1.00;98.22;151626.44;5002141;28;20784;-81
2022/01/14 09:34:00;;;;;;;23.67;17.83;;;;;;;1.05;98.14;151639.28;4995744;28;20488;-81
2022/01/14 09:36:35;;;;;;;20.90;17.20;;;;;;;1.09;97.57;151649.53;4976312;28;20457;-81
2022/01/14 09:39:11;;;;;;;21.83;18.00;;;;;;;1.16;97.57;151667.56;4993036;28;20454;-81
2022/01/14 09:41:48;;;;;;;20.00;16.77;;;;;;;1.19;97.37;151675.22;4989941;28;20452;-81
2022/01/14 09:44:23;;;;;;;21.43;17.10;;;;;;;1.27;96.72;151694.53;4968087;28;20454;-81
2022/01/14 09:46:59;;;;;;;25.97;18.43;;;;;;;1.31;96.58;151703.50;4987666;28;20526;-81
2022/01/14 09:49:36;;;;;;;23.17;18.53;;;;;;;1.34;96.99;151712.50;4989652;28;20453;-81
2022/01/14 09:52:12;;;;;;;25.70;19.50;;;;;;;1.43;97.17;151734.34;4991426;28;20433;-80
2022/01/14 09:54:50;;;;;;;21.27;18.00;;;;;;;1.44;96.45;151738.19;4975707;28;20462;-81
2022/01/14 09:57:27;;;;;;;25.03;18.33;;;;;;;1.49;96.62;151749.72;4991102;28;20991;-80
2022/01/14 10:00:05;;;;;;;26.93;20.53;;;;;;;1.56;96.88;151767.75;4976233;28;20859;-80
2022/01/14 10:02:44;;;;;;;26.70;19.17;;;;;;;1.57;97.05;151771.59;4990621;28;20454;-80
2022/01/14 10:05:34;;;;;;;34.20;20.17;;;;;;;1.62;97.20;151784.44;5009023;28;20442;-80
2022/01/14 10:08:14;;;;;;;22.93;18.57;;;;;;;1.63;96.66;151785.72;4978419;28;20533;-79
2022/01/14 10:10:51;;;;;;;25.07;19.20;;;;;;;1.68;96.96;151798.56;4999454;28;20446;-80
2022/01/14 10:13:31;;;;;;;21.63;16.73;;;;;;;1.72;95.71;151808.88;4989126;28;20450;-81
2022/01/14 10:16:07;;;;;;;24.37;17.73;;;;;;;1.72;95.62;151808.88;4987292;28;20462;-80
2022/01/14 10:18:49;;;;;;;20.83;16.40;;;;;;;1.76;94.45;151819.13;4991907;28;20474;-81
2022/01/14 10:21:31;;;;;;;22.20;15.50;;;;;;;1.78;93.95;151825.56;4976005;28;20470;-80
2022/01/14 10:24:11;;;;;;;18.87;15.90;;;;;;;1.78;94.17;151825.56;4984132;28;20485;-81
2022/01/14 10:26:48;;;;;;;22.20;15.67;;;;;;;1.83;93.00;151837.13;4982583;28;20446;-80
2022/01/14 10:29:31;;;;;;;20.37;15.70;;;;;;;1.81;92.48;151833.28;4990418;28;20785;-80
2022/01/14 10:32:11;;;;;;;19.00;16.10;;;;;;;1.85;93.07;151842.28;4970090;28;20435;-80
2022/01/14 10:34:48;;;;;;;21.10;15.10;;;;;;;1.95;91.43;151868.00;4989829;28;20446;-80
2022/01/14 10:37:24;;;;;;;18.93;14.47;;;;;;;1.95;91.58;151868.00;4981663;28;20555;-80
2022/01/14 10:39:59;;;;;;;17.87;14.20;;;;;;;1.97;91.10;151873.13;4987279;28;20459;-80
2022/01/14 10:42:35;;;;;;;23.23;13.10;;;;;;;1.97;91.10;151873.13;4991565;28;20445;-80
2022/01/14 10:45:22;;;;;;;15.80;13.03;;;;;;;1.99;91.76;151878.25;4999096;28;20454;-80
2022/01/14 10:47:59;;;;;;;18.00;12.60;;;;;;;2.03;90.87;151887.25;4975727;28;21115;-80
2022/01/14 10:50:38;;;;;;;13.03;11.60;;;;;;;2.00;90.01;151880.84;4975659;28;20856;-80
2022/01/14 10:53:16;;;;;;;15.07;11.03;;;;;;;2.10;89.07;151906.53;4984822;28;20537;-80
2022/01/14 10:55:53;;;;;;;13.97;12.33;;;;;;;2.20;88.88;151932.25;4993800;28;20454;-80
2022/01/14 10:58:31;;;;;;;16.07;13.20;;;;;;;2.25;89.21;151943.84;4975421;28;20472;-80
2022/01/14 11:01:11;;;;;;;18.73;14.00;;;;;;;2.29;90.08;151954.13;4974914;28;20443;-80
2022/01/14 11:03:52;;;;;;;17.43;15.63;;;;;;;2.29;90.75;151955.41;4975072;28;20461;-80
2022/01/14 11:06:29;;;;;;;19.17;16.07;;;;;;;2.32;90.31;151963.13;4992014;28;20431;-79
2022/01/14 11:09:07;;;;;;;21.10;16.77;;;;;;;2.31;90.33;151959.25;4975275;28;20749;-80
2022/01/14 11:11:44;;;;;;;22.13;16.90;;;;;;;2.29;91.05;151954.13;4969613;28;20443;-80
2022/01/14 11:14:20;;;;;;;20.97;16.00;;;;;;;2.31;91.09;151960.53;4988732;28;20464;-80
2022/01/14 11:16:57;;;;;;;21.67;15.90;;;;;;;2.38;91.12;151977.28;4979292;28;20466;-80
2022/01/14 11:19:36;;;;;;;22.60;17.53;;;;;;;2.56;90.14;152023.56;4974263;28;20851;-80
2022/01/14 11:25:12;;;;;;;22.77;17.50;;;;;;;2.59;90.58;152031.28;4986662;28;20454;-80
2022/01/14 11:27:50;;;;;;;24.20;16.70;;;;;;;2.61;90.59;152035.13;4971219;28;20447;-80
2022/01/14 11:30:37;;;;;;;21.40;16.97;;;;;;;2.74;90.53;152068.56;4970906;28;20444;-80
2022/01/14 11:33:15;;;;;;;21.47;15.97;;;;;;;2.73;90.59;152065.97;4995761;28;20447;-80
2022/01/14 11:35:56;;;;;;;23.10;17.13;;;;;;;2.80;90.57;152084.03;4991444;28;20527;-80
2022/01/14 11:38:43;;;;;;;19.73;16.57;;;;;;;2.82;90.32;152089.16;4990556;28;20459;-80
2022/01/14 11:41:21;;;;;;;19.20;16.33;;;;;;;2.86;89.89;152099.47;4995166;28;20541;-80
2022/01/14 11:43:56;;;;;;;23.50;17.67;;;;;;;2.94;89.25;152120.00;4955629;28;20455;-80
2022/01/14 11:46:50;;;;;;;20.43;15.77;;;;;;;2.97;89.56;152129.03;4959456;28;20794;-80
2022/01/14 11:49:35;;;;;;;20.10;15.53;;;;;;;3.11;88.89;152163.78;4981833;28;20483;-80
2022/01/14 11:52:14;;;;;;;22.47;15.83;;;;;;;3.18;88.40;152180.53;4987728;28;20790;-80
2022/01/14 11:54:49;;;;;;;19.03;15.80;;;;;;;3.30;88.32;152212.69;4992014;28;20450;-81
2022/01/14 11:57:44;;;;;;;19.53;17.50;;;;;;;3.35;88.49;152225.56;4977388;28;20472;-80
2022/01/14 12:00:37;;;;;;;23.50;16.13;;;;;;;3.36;88.17;152228.09;4994211;28;20902;-80
2022/01/14 12:03:28;;;;;;;19.57;15.93;;;;;;;3.43;88.01;152246.16;4975576;28;20428;-80
2022/01/14 12:06:07;;;;;;;17.77;15.30;;;;;;;3.55;87.38;152277.03;4972278;28;20618;-81
2022/01/14 12:08:42;;;;;;;17.57;14.67;;;;;;;3.58;87.38;152284.75;4986849;28;20947;-80